sensor_id;sensor_type;location;lat;lon;timestamp;pressure;altitude;pressure_sealevel;temperature;humidity
53659;BME280;41524;35.624;139.698;2023-03-18T00:00:13;101513.00;;;8.02;68.17
53659;BME280;41524;35.624;139.698;2023-03-18T00:05:16;101488.00;;;7.54;68.69
53659;BME280;41524;35.624;139.698;2023-03-18T00:10:12;101471.00;;;8.06;68.05
53659;BME280;41524;35.624;139.698;2023-03-18T00:15:13;101469.00;;;8.75;66.97
53659;BME280;41524;35.624;139.698;2023-03-18T00:20:13;101468.00;;;8.13;67.39
53659;BME280;41524;35.624;139.698;2023-03-18T00:25:18;101462.00;;;7.46;69.18
53659;BME280;41524;35.624;139.698;2023-03-18T00:30:16;101451.00;;;7.55;69.39
53659;BME280;41524;35.624;139.698;2023-03-18T00:35:12;101453.00;;;7.83;69.45
53659;BME280;41524;35.624;139.698;2023-03-18T00:40:12;101399.00;;;6.93;71.66
53659;BME280;41524;35.624;139.698;2023-03-18T00:45:12;101402.00;;;8.36;68.45
53659;BME280;41524;35.624;139.698;2023-03-18T00:50:12;101390.00;;;7.66;70.09
53659;BME280;41524;35.624;139.698;2023-03-18T00:55:15;101374.00;;;7.44;69.72
53659;BME280;41524;35.624;139.698;2023-03-18T01:00:22;101354.00;;;7.86;69.11
53659;BME280;41524;35.624;139.698;2023-03-18T01:05:12;101345.00;;;7.24;70.71
53659;BME280;41524;35.624;139.698;2023-03-18T01:10:12;101337.00;;;8.27;69.22
53659;BME280;41524;35.624;139.698;2023-03-18T01:15:15;101318.00;;;8.52;67.49
53659;BME280;41524;35.624;139.698;2023-03-18T01:20:15;101307.00;;;8.86;67.73
53659;BME280;41524;35.624;139.698;2023-03-18T01:25:12;101302.00;;;8.78;67.00
53659;BME280;41524;35.624;139.698;2023-03-18T01:30:21;101296.00;;;9.03;65.67
53659;BME280;41524;35.624;139.698;2023-03-18T01:35:20;101278.00;;;8.53;66.64
53659;BME280;41524;35.624;139.698;2023-03-18T01:40:14;101252.00;;;9.09;65.94
53659;BME280;41524;35.624;139.698;2023-03-18T01:45:15;101253.00;;;9.08;65.09
53659;BME280;41524;35.624;139.698;2023-03-18T01:50:20;101247.00;;;9.17;67.00
53659;BME280;41524;35.624;139.698;2023-03-18T01:55:14;101230.00;;;9.09;66.55
53659;BME280;41524;35.624;139.698;2023-03-18T02:00:16;101222.00;;;8.87;67.65
53659;BME280;41524;35.624;139.698;2023-03-18T02:05:13;101217.00;;;8.68;65.45
53659;BME280;41524;35.624;139.698;2023-03-18T02:10:19;101196.00;;;9.75;64.87
53659;BME280;41524;35.624;139.698;2023-03-18T02:15:19;101164.00;;;9.21;65.68
53659;BME280;41524;35.624;139.698;2023-03-18T02:20:27;101156.00;;;9.30;65.59
53659;BME280;41524;35.624;139.698;2023-03-18T02:25:20;101136.00;;;9.54;66.18
53659;BME280;41524;35.624;139.698;2023-03-18T02:30:17;101111.00;;;8.07;68.79
53659;BME280;41524;35.624;139.698;2023-03-18T02:35:16;101080.00;;;7.11;69.28
53659;BME280;41524;35.624;139.698;2023-03-18T02:40:15;101091.00;;;8.45;66.03
53659;BME280;41524;35.624;139.698;2023-03-18T02:45:29;101076.00;;;6.98;67.77
53659;BME280;41524;35.624;139.698;2023-03-18T02:50:16;101076.00;;;8.83;64.48
53659;BME280;41524;35.624;139.698;2023-03-18T02:55:15;101077.00;;;8.83;64.62
53659;BME280;41524;35.624;139.698;2023-03-18T03:00:18;101063.00;;;8.13;65.32
53659;BME280;41524;35.624;139.698;2023-03-18T03:05:11;101044.00;;;7.75;65.59
53659;BME280;41524;35.624;139.698;2023-03-18T03:10:21;101026.00;;;8.43;66.76
53659;BME280;41524;35.624;139.698;2023-03-18T03:15:13;101014.00;;;8.48;64.33
53659;BME280;41524;35.624;139.698;2023-03-18T03:20:11;101002.00;;;8.97;64.19
53659;BME280;41524;35.624;139.698;2023-03-18T03:25:11;101001.00;;;7.82;66.83
53659;BME280;41524;35.624;139.698;2023-03-18T03:30:16;101006.00;;;7.55;67.38
53659;BME280;41524;35.624;139.698;2023-03-18T03:35:14;101021.00;;;8.57;65.95
53659;BME280;41524;35.624;139.698;2023-03-18T03:40:12;101026.00;;;8.50;65.94
53659;BME280;41524;35.624;139.698;2023-03-18T03:45:17;101008.00;;;8.38;68.34
53659;BME280;41524;35.624;139.698;2023-03-18T03:50:14;100990.00;;;7.91;67.53
53659;BME280;41524;35.624;139.698;2023-03-18T03:55:20;100988.00;;;9.00;66.66
53659;BME280;41524;35.624;139.698;2023-03-18T04:00:13;100980.00;;;7.20;67.73
53659;BME280;41524;35.624;139.698;2023-03-18T04:05:17;100974.00;;;7.88;67.06
53659;BME280;41524;35.624;139.698;2023-03-18T04:10:26;100943.00;;;8.31;66.42
53659;BME280;41524;35.624;139.698;2023-03-18T04:15:13;100917.00;;;8.72;65.34
53659;BME280;41524;35.624;139.698;2023-03-18T04:20:12;100924.00;;;8.32;65.84
53659;BME280;41524;35.624;139.698;2023-03-18T04:25:15;100905.00;;;8.38;65.57
53659;BME280;41524;35.624;139.698;2023-03-18T04:30:12;100914.00;;;8.63;66.12
53659;BME280;41524;35.624;139.698;2023-03-18T04:35:12;100910.00;;;7.59;67.95
53659;BME280;41524;35.624;139.698;2023-03-18T04:40:12;100889.00;;;7.14;67.85
53659;BME280;41524;35.624;139.698;2023-03-18T04:45:11;100886.00;;;7.04;68.63
53659;BME280;41524;35.624;139.698;2023-03-18T04:50:13;100833.00;;;7.18;68.18
53659;BME280;41524;35.624;139.698;2023-03-18T04:55:16;100839.00;;;7.77;67.34
53659;BME280;41524;35.624;139.698;2023-03-18T05:00:18;100843.00;;;7.84;66.91
53659;BME280;41524;35.624;139.698;2023-03-18T05:05:11;100846.00;;;8.12;66.23
53659;BME280;41524;35.624;139.698;2023-03-18T05:10:12;100850.00;;;7.80;67.09
53659;BME280;41524;35.624;139.698;2023-03-18T05:15:16;100853.00;;;7.46;67.90
53659;BME280;41524;35.624;139.698;2023-03-18T05:20:12;100841.00;;;7.21;69.18
53659;BME280;41524;35.624;139.698;2023-03-18T05:25:12;100850.00;;;7.49;67.49
53659;BME280;41524;35.624;139.698;2023-03-18T05:30:18;100851.00;;;6.95;68.31
53659;BME280;41524;35.624;139.698;2023-03-18T05:35:12;100811.00;;;7.07;69.66
53659;BME280;41524;35.624;139.698;2023-03-18T05:40:22;100840.00;;;7.43;68.85
53659;BME280;41524;35.624;139.698;2023-03-18T05:45:16;100826.00;;;7.03;71.03
53659;BME280;41524;35.624;139.698;2023-03-18T05:50:11;100818.00;;;6.84;70.01
53659;BME280;41524;35.624;139.698;2023-03-18T05:55:15;100833.00;;;7.79;68.48
53659;BME280;41524;35.624;139.698;2023-03-18T06:00:16;100831.00;;;7.30;69.27
53659;BME280;41524;35.624;139.698;2023-03-18T06:05:11;100829.00;;;7.62;68.72
53659;BME280;41524;35.624;139.698;2023-03-18T06:10:16;100828.00;;;7.47;69.15
53659;BME280;41524;35.624;139.698;2023-03-18T06:15:18;100833.00;;;7.59;69.46
53659;BME280;41524;35.624;139.698;2023-03-18T06:20:13;100833.00;;;7.19;70.25
53659;BME280;41524;35.624;139.698;2023-03-18T06:25:18;100815.00;;;7.92;68.47
53659;BME280;41524;35.624;139.698;2023-03-18T06:30:12;100801.00;;;8.01;67.64
53659;BME280;41524;35.624;139.698;2023-03-18T06:35:16;100806.00;;;8.93;66.24
53659;BME280;41524;35.624;139.698;2023-03-18T06:40:11;100812.00;;;9.18;64.87
53659;BME280;41524;35.624;139.698;2023-03-18T06:45:12;100818.00;;;8.27;68.41
53659;BME280;41524;35.624;139.698;2023-03-18T06:50:11;100824.00;;;8.05;67.11
53659;BME280;41524;35.624;139.698;2023-03-18T06:55:16;100828.00;;;8.68;66.66
53659;BME280;41524;35.624;139.698;2023-03-18T07:00:18;100840.00;;;7.73;68.78
53659;BME280;41524;35.624;139.698;2023-03-18T07:05:11;100843.00;;;7.23;69.75
53659;BME280;41524;35.624;139.698;2023-03-18T07:10:19;100823.00;;;8.28;66.88
53659;BME280;41524;35.624;139.698;2023-03-18T07:15:15;100823.00;;;7.20;69.28
53659;BME280;41524;35.624;139.698;2023-03-18T07:20:22;100812.00;;;7.28;70.13
53659;BME280;41524;35.624;139.698;2023-03-18T07:25:11;100815.00;;;7.43;68.89
53659;BME280;41524;35.624;139.698;2023-03-18T07:30:16;100802.00;;;7.56;68.14
53659;BME280;41524;35.624;139.698;2023-03-18T07:35:15;100799.00;;;6.99;68.88
53659;BME280;41524;35.624;139.698;2023-03-18T07:40:12;100812.00;;;7.44;67.07
53659;BME280;41524;35.624;139.698;2023-03-18T07:45:16;100810.00;;;7.01;68.97
53659;BME280;41524;35.624;139.698;2023-03-18T07:50:11;100829.00;;;7.35;67.86
53659;BME280;41524;35.624;139.698;2023-03-18T07:55:11;100813.00;;;7.10;66.76
53659;BME280;41524;35.624;139.698;2023-03-18T08:00:12;100822.00;;;7.64;66.73
53659;BME280;41524;35.624;139.698;2023-03-18T08:05:12;100806.00;;;7.57;65.64
53659;BME280;41524;35.624;139.698;2023-03-18T08:10:18;100817.00;;;6.73;68.20
53659;BME280;41524;35.624;139.698;2023-03-18T08:15:11;100820.00;;;7.49;65.16
53659;BME280;41524;35.624;139.698;2023-03-18T08:20:12;100816.00;;;7.10;65.97
53659;BME280;41524;35.624;139.698;2023-03-18T08:25:16;100806.00;;;7.46;65.87
53659;BME280;41524;35.624;139.698;2023-03-18T08:30:13;100798.00;;;7.04;66.63
53659;BME280;41524;35.624;139.698;2023-03-18T08:35:12;100819.00;;;7.07;65.70
53659;BME280;41524;35.624;139.698;2023-03-18T08:40:12;100806.00;;;6.73;66.89
53659;BME280;41524;35.624;139.698;2023-03-18T08:45:16;100808.00;;;6.10;68.06
53659;BME280;41524;35.624;139.698;2023-03-18T08:50:13;100806.00;;;6.38;66.64
53659;BME280;41524;35.624;139.698;2023-03-18T08:55:11;100807.00;;;6.72;66.80
53659;BME280;41524;35.624;139.698;2023-03-18T09:00:11;100828.00;;;7.19;64.01
53659;BME280;41524;35.624;139.698;2023-03-18T09:05:16;100830.00;;;6.62;65.83
53659;BME280;41524;35.624;139.698;2023-03-18T09:10:11;100820.00;;;6.95;63.68
53659;BME280;41524;35.624;139.698;2023-03-18T09:15:13;100818.00;;;6.27;64.49
53659;BME280;41524;35.624;139.698;2023-03-18T09:20:13;100832.00;;;5.74;66.02
53659;BME280;41524;35.624;139.698;2023-03-18T09:25:16;100856.00;;;4.99;67.17
53659;BME280;41524;35.624;139.698;2023-03-18T09:30:16;100839.00;;;6.68;63.05
53659;BME280;41524;35.624;139.698;2023-03-18T09:35:19;100846.00;;;7.85;60.70
53659;BME280;41524;35.624;139.698;2023-03-18T09:40:15;100852.00;;;4.25;68.73
53659;BME280;41524;35.624;139.698;2023-03-18T09:45:27;100833.00;;;6.34;64.74
53659;BME280;41524;35.624;139.698;2023-03-18T09:50:29;100843.00;;;7.07;62.20
53659;BME280;41524;35.624;139.698;2023-03-18T09:55:23;100854.00;;;7.80;60.57
53659;BME280;41524;35.624;139.698;2023-03-18T10:00:20;100873.00;;;7.33;62.16
53659;BME280;41524;35.624;139.698;2023-03-18T10:05:20;100874.00;;;7.28;62.25
53659;BME280;41524;35.624;139.698;2023-03-18T10:10:21;100881.00;;;7.50;61.49
53659;BME280;41524;35.624;139.698;2023-03-18T10:15:16;100892.00;;;7.36;62.20
53659;BME280;41524;35.624;139.698;2023-03-18T10:20:17;100904.00;;;7.38;61.33
53659;BME280;41524;35.624;139.698;2023-03-18T10:25:23;100914.00;;;8.10;60.73
53659;BME280;41524;35.624;139.698;2023-03-18T10:30:26;100922.00;;;8.41;59.77
53659;BME280;41524;35.624;139.698;2023-03-18T10:35:23;100923.00;;;7.38;61.87
53659;BME280;41524;35.624;139.698;2023-03-18T10:40:15;100923.00;;;8.06;60.39
53659;BME280;41524;35.624;139.698;2023-03-18T10:45:21;100929.00;;;6.15;65.06
53659;BME280;41524;35.624;139.698;2023-03-18T10:50:17;100930.00;;;8.09;59.12
53659;BME280;41524;35.624;139.698;2023-03-18T10:55:15;100924.00;;;7.22;60.86
53659;BME280;41524;35.624;139.698;2023-03-18T11:00:27;100944.00;;;7.36;61.00
53659;BME280;41524;35.624;139.698;2023-03-18T11:05:22;100955.00;;;6.51;63.58
53659;BME280;41524;35.624;139.698;2023-03-18T11:10:24;100956.00;;;7.81;60.19
53659;BME280;41524;35.624;139.698;2023-03-18T11:15:20;100974.00;;;7.50;60.60
53659;BME280;41524;35.624;139.698;2023-03-18T11:20:22;100983.00;;;7.18;60.92
53659;BME280;41524;35.624;139.698;2023-03-18T11:25:15;100990.00;;;7.98;59.95
53659;BME280;41524;35.624;139.698;2023-03-18T11:30:20;100992.00;;;7.48;61.02
53659;BME280;41524;35.624;139.698;2023-03-18T11:35:19;101004.00;;;7.44;60.70
53659;BME280;41524;35.624;139.698;2023-03-18T11:40:21;101004.00;;;7.71;58.86
53659;BME280;41524;35.624;139.698;2023-03-18T11:45:33;101010.00;;;7.50;59.47
53659;BME280;41524;35.624;139.698;2023-03-18T11:50:19;101016.00;;;8.51;56.22
53659;BME280;41524;35.624;139.698;2023-03-18T11:55:24;101016.00;;;7.35;59.69
53659;BME280;41524;35.624;139.698;2023-03-18T12:00:20;101026.00;;;7.77;57.80
53659;BME280;41524;35.624;139.698;2023-03-18T12:05:46;101029.00;;;5.42;66.20
53659;BME280;41524;35.624;139.698;2023-03-18T12:10:20;101026.00;;;7.42;61.12
53659;BME280;41524;35.624;139.698;2023-03-18T12:15:18;101017.00;;;6.66;60.95
53659;BME280;41524;35.624;139.698;2023-03-18T12:20:40;101015.00;;;4.26;66.72
53659;BME280;41524;35.624;139.698;2023-03-18T12:25:29;101017.00;;;6.47;63.00
53659;BME280;41524;35.624;139.698;2023-03-18T12:30:32;101020.00;;;5.44;65.20
53659;BME280;41524;35.624;139.698;2023-03-18T12:35:28;101020.00;;;4.80;64.99
53659;BME280;41524;35.624;139.698;2023-03-18T12:40:24;101023.00;;;4.64;65.34
53659;BME280;41524;35.624;139.698;2023-03-18T12:45:14;101025.00;;;5.71;66.09
53659;BME280;41524;35.624;139.698;2023-03-18T12:50:16;101028.00;;;4.27;66.88
53659;BME280;41524;35.624;139.698;2023-03-18T12:55:17;101026.00;;;6.37;64.26
53659;BME280;41524;35.624;139.698;2023-03-18T13:00:20;101026.00;;;6.70;63.12
53659;BME280;41524;35.624;139.698;2023-03-18T13:05:29;101027.00;;;6.07;62.17
53659;BME280;41524;35.624;139.698;2023-03-18T13:15:19;101023.00;;;6.05;62.77
53659;BME280;41524;35.624;139.698;2023-03-18T13:20:21;101022.00;;;6.30;61.75
53659;BME280;41524;35.624;139.698;2023-03-18T13:25:22;101023.00;;;7.21;58.70
53659;BME280;41524;35.624;139.698;2023-03-18T13:30:25;101027.00;;;6.85;58.87
53659;BME280;41524;35.624;139.698;2023-03-18T13:35:24;101022.00;;;7.35;58.30
53659;BME280;41524;35.624;139.698;2023-03-18T13:40:26;101025.00;;;6.77;59.23
53659;BME280;41524;35.624;139.698;2023-03-18T13:45:18;101020.00;;;7.42;58.05
53659;BME280;41524;35.624;139.698;2023-03-18T13:50:30;101014.00;;;7.56;57.84
53659;BME280;41524;35.624;139.698;2023-03-18T13:55:28;101018.00;;;7.01;58.82
53659;BME280;41524;35.624;139.698;2023-03-18T14:00:33;101012.00;;;7.64;57.03
53659;BME280;41524;35.624;139.698;2023-03-18T14:05:36;101012.00;;;7.56;57.81
53659;BME280;41524;35.624;139.698;2023-03-18T14:10:18;101014.00;;;5.55;63.33
53659;BME280;41524;35.624;139.698;2023-03-18T14:15:46;101021.00;;;5.70;62.45
53659;BME280;41524;35.624;139.698;2023-03-18T14:20:26;101023.00;;;6.20;61.73
53659;BME280;41524;35.624;139.698;2023-03-18T14:25:52;101023.00;;;5.96;62.21
53659;BME280;41524;35.624;139.698;2023-03-18T14:30:45;101021.00;;;6.00;62.74
53659;BME280;41524;35.624;139.698;2023-03-18T14:35:26;101023.00;;;7.26;58.95
53659;BME280;41524;35.624;139.698;2023-03-18T14:40:15;101023.00;;;7.18;59.12
53659;BME280;41524;35.624;139.698;2023-03-18T14:45:17;101034.00;;;6.35;61.09
53659;BME280;41524;35.624;139.698;2023-03-18T14:50:24;101033.00;;;6.81;59.19
53659;BME280;41524;35.624;139.698;2023-03-18T14:55:18;101047.00;;;7.34;59.30
53659;BME280;41524;35.624;139.698;2023-03-18T15:00:18;101058.00;;;6.99;58.93
53659;BME280;41524;35.624;139.698;2023-03-18T15:05:19;101070.00;;;7.73;58.17
53659;BME280;41524;35.624;139.698;2023-03-18T15:10:14;101076.00;;;7.51;58.93
53659;BME280;41524;35.624;139.698;2023-03-18T15:15:14;101087.00;;;7.56;59.92
53659;BME280;41524;35.624;139.698;2023-03-18T15:20:16;101087.00;;;6.66;61.41
53659;BME280;41524;35.624;139.698;2023-03-18T15:25:18;101090.00;;;6.92;60.97
53659;BME280;41524;35.624;139.698;2023-03-18T15:30:25;101098.00;;;7.36;60.21
53659;BME280;41524;35.624;139.698;2023-03-18T15:35:16;101102.00;;;6.49;62.98
53659;BME280;41524;35.624;139.698;2023-03-18T15:40:28;101117.00;;;7.56;59.88
53659;BME280;41524;35.624;139.698;2023-03-18T15:45:15;101144.00;;;5.93;64.00
53659;BME280;41524;35.624;139.698;2023-03-18T15:50:24;101144.00;;;7.37;60.36
53659;BME280;41524;35.624;139.698;2023-03-18T15:55:26;101150.00;;;7.77;58.71
53659;BME280;41524;35.624;139.698;2023-03-18T16:00:13;101148.00;;;7.77;58.21
53659;BME280;41524;35.624;139.698;2023-03-18T16:05:18;101156.00;;;6.90;61.92
53659;BME280;41524;35.624;139.698;2023-03-18T16:10:12;101155.00;;;7.77;60.58
53659;BME280;41524;35.624;139.698;2023-03-18T16:15:15;101155.00;;;7.15;60.92
53659;BME280;41524;35.624;139.698;2023-03-18T16:20:17;101172.00;;;6.34;62.62
53659;BME280;41524;35.624;139.698;2023-03-18T16:25:11;101173.00;;;7.29;59.92
53659;BME280;41524;35.624;139.698;2023-03-18T16:30:18;101175.00;;;7.45;59.26
53659;BME280;41524;35.624;139.698;2023-03-18T16:35:23;101172.00;;;8.06;57.86
53659;BME280;41524;35.624;139.698;2023-03-18T16:45:15;101170.00;;;7.32;60.97
53659;BME280;41524;35.624;139.698;2023-03-18T16:50:17;101176.00;;;7.41;60.07
53659;BME280;41524;35.624;139.698;2023-03-18T16:55:13;101178.00;;;7.03;62.12
53659;BME280;41524;35.624;139.698;2023-03-18T17:00:20;101168.00;;;8.47;56.53
53659;BME280;41524;35.624;139.698;2023-03-18T17:05:14;101173.00;;;7.58;57.81
53659;BME280;41524;35.624;139.698;2023-03-18T17:10:14;101191.00;;;6.76;55.94
53659;BME280;41524;35.624;139.698;2023-03-18T17:15:15;101187.00;;;6.63;56.21
53659;BME280;41524;35.624;139.698;2023-03-18T17:20:17;101191.00;;;7.07;55.24
53659;BME280;41524;35.624;139.698;2023-03-18T17:25:10;101200.00;;;6.49;54.72
53659;BME280;41524;35.624;139.698;2023-03-18T17:30:18;101202.00;;;5.77;54.45
53659;BME280;41524;35.624;139.698;2023-03-18T17:35:15;101215.00;;;6.57;51.49
53659;BME280;41524;35.624;139.698;2023-03-18T17:45:22;101227.00;;;6.47;51.26
53659;BME280;41524;35.624;139.698;2023-03-18T17:50:14;101229.00;;;6.07;50.85
53659;BME280;41524;35.624;139.698;2023-03-18T17:55:15;101228.00;;;6.12;48.70
53659;BME280;41524;35.624;139.698;2023-03-18T18:00:19;101233.00;;;6.02;47.83
53659;BME280;41524;35.624;139.698;2023-03-18T18:05:16;101236.00;;;6.22;46.34
53659;BME280;41524;35.624;139.698;2023-03-18T18:10:12;101236.00;;;6.58;45.03
53659;BME280;41524;35.624;139.698;2023-03-18T18:15:20;101250.00;;;6.01;45.53
53659;BME280;41524;35.624;139.698;2023-03-18T18:20:14;101263.00;;;6.04;44.85
53659;BME280;41524;35.624;139.698;2023-03-18T18:25:17;101275.00;;;5.43;44.99
53659;BME280;41524;35.624;139.698;2023-03-18T18:30:15;101281.00;;;5.37;44.86
53659;BME280;41524;35.624;139.698;2023-03-18T18:35:16;101290.00;;;4.87;45.14
53659;BME280;41524;35.624;139.698;2023-03-18T18:40:13;101296.00;;;5.29;44.86
53659;BME280;41524;35.624;139.698;2023-03-18T18:45:16;101299.00;;;5.64;44.75
53659;BME280;41524;35.624;139.698;2023-03-18T18:50:17;101316.00;;;5.81;44.47
53659;BME280;41524;35.624;139.698;2023-03-18T18:55:11;101324.00;;;5.33;46.27
53659;BME280;41524;35.624;139.698;2023-03-18T19:00:17;101335.00;;;5.90;45.90
53659;BME280;41524;35.624;139.698;2023-03-18T19:05:11;101343.00;;;5.87;46.85
53659;BME280;41524;35.624;139.698;2023-03-18T19:10:13;101348.00;;;5.60;47.55
53659;BME280;41524;35.624;139.698;2023-03-18T19:15:12;101355.00;;;5.94;48.04
53659;BME280;41524;35.624;139.698;2023-03-18T19:20:25;101358.00;;;5.85;49.48
53659;BME280;41524;35.624;139.698;2023-03-18T19:25:15;101367.00;;;5.44;51.47
53659;BME280;41524;35.624;139.698;2023-03-18T19:30:20;101380.00;;;6.00;50.90
53659;BME280;41524;35.624;139.698;2023-03-18T19:35:13;101390.00;;;6.01;51.05
53659;BME280;41524;35.624;139.698;2023-03-18T19:40:22;101391.00;;;6.21;50.93
53659;BME280;41524;35.624;139.698;2023-03-18T19:45:13;101405.00;;;5.90;52.43
53659;BME280;41524;35.624;139.698;2023-03-18T19:50:15;101415.00;;;6.10;52.79
53659;BME280;41524;35.624;139.698;2023-03-18T19:55:13;101417.00;;;5.63;53.27
53659;BME280;41524;35.624;139.698;2023-03-18T20:00:21;101427.00;;;6.53;52.63
53659;BME280;41524;35.624;139.698;2023-03-18T20:05:17;101430.00;;;5.30;54.86
53659;BME280;41524;35.624;139.698;2023-03-18T20:10:17;101436.00;;;6.61;52.91
53659;BME280;41524;35.624;139.698;2023-03-18T20:15:13;101442.00;;;6.24;53.50
53659;BME280;41524;35.624;139.698;2023-03-18T20:20:14;101453.00;;;6.47;52.79
53659;BME280;41524;35.624;139.698;2023-03-18T20:25:18;101459.00;;;5.85;53.54
53659;BME280;41524;35.624;139.698;2023-03-18T20:30:23;101473.00;;;6.64;51.33
53659;BME280;41524;35.624;139.698;2023-03-18T20:35:12;101485.00;;;5.78;53.29
53659;BME280;41524;35.624;139.698;2023-03-18T20:40:19;101490.00;;;5.95;52.20
53659;BME280;41524;35.624;139.698;2023-03-18T20:45:16;101501.00;;;4.77;52.82
53659;BME280;41524;35.624;139.698;2023-03-18T20:50:12;101497.00;;;5.89;50.30
53659;BME280;41524;35.624;139.698;2023-03-18T20:55:20;101508.00;;;5.90;49.70
53659;BME280;41524;35.624;139.698;2023-03-18T21:00:23;101514.00;;;5.46;51.57
53659;BME280;41524;35.624;139.698;2023-03-18T21:05:11;101527.00;;;6.47;48.57
53659;BME280;41524;35.624;139.698;2023-03-18T21:10:20;101533.00;;;6.28;47.34
53659;BME280;41524;35.624;139.698;2023-03-18T21:15:20;101544.00;;;6.61;47.56
53659;BME280;41524;35.624;139.698;2023-03-18T21:20:14;101556.00;;;5.98;48.56
53659;BME280;41524;35.624;139.698;2023-03-18T21:25:17;101562.00;;;5.82;48.43
53659;BME280;41524;35.624;139.698;2023-03-18T21:30:22;101568.00;;;6.14;47.70
53659;BME280;41524;35.624;139.698;2023-03-18T21:35:17;101579.00;;;7.33;44.39
53659;BME280;41524;35.624;139.698;2023-03-18T21:40:22;101586.00;;;6.92;44.67
53659;BME280;41524;35.624;139.698;2023-03-18T21:45:14;101602.00;;;3.58;50.09
53659;BME280;41524;35.624;139.698;2023-03-18T21:50:24;101604.00;;;5.72;46.59
53659;BME280;41524;35.624;139.698;2023-03-18T21:55:12;101603.00;;;6.85;43.32
53659;BME280;41524;35.624;139.698;2023-03-18T22:00:18;101609.00;;;7.41;42.91
53659;BME280;41524;35.624;139.698;2023-03-18T22:05:14;101612.00;;;7.39;41.26
53659;BME280;41524;35.624;139.698;2023-03-18T22:10:17;101616.00;;;7.41;41.08
53659;BME280;41524;35.624;139.698;2023-03-18T22:15:35;101629.00;;;6.91;40.62
53659;BME280;41524;35.624;139.698;2023-03-18T22:20:16;101638.00;;;8.08;38.95
53659;BME280;41524;35.624;139.698;2023-03-18T22:25:18;101648.00;;;7.72;38.49
53659;BME280;41524;35.624;139.698;2023-03-18T22:30:12;101658.00;;;7.73;38.76
53659;BME280;41524;35.624;139.698;2023-03-18T22:35:14;101666.00;;;9.05;36.60
53659;BME280;41524;35.624;139.698;2023-03-18T22:40:19;101670.00;;;7.95;37.84
53659;BME280;41524;35.624;139.698;2023-03-18T22:45:24;101676.00;;;7.66;38.95
53659;BME280;41524;35.624;139.698;2023-03-18T22:50:11;101672.00;;;6.62;39.08
53659;BME280;41524;35.624;139.698;2023-03-18T22:55:20;101683.00;;;5.75;39.83
53659;BME280;41524;35.624;139.698;2023-03-18T23:05:16;101684.00;;;6.77;38.39
53659;BME280;41524;35.624;139.698;2023-03-18T23:10:11;101685.00;;;8.38;36.97
53659;BME280;41524;35.624;139.698;2023-03-18T23:15:18;101688.00;;;9.82;34.83
53659;BME280;41524;35.624;139.698;2023-03-18T23:20:17;101699.00;;;8.74;35.98
53659;BME280;41524;35.624;139.698;2023-03-18T23:25:15;101706.00;;;9.90;34.32
53659;BME280;41524;35.624;139.698;2023-03-18T23:30:12;101715.00;;;9.18;34.54
53659;BME280;41524;35.624;139.698;2023-03-18T23:35:11;101719.00;;;9.34;33.20
53659;BME280;41524;35.624;139.698;2023-03-18T23:40:12;101723.00;;;10.33;33.31
53659;BME280;41524;35.624;139.698;2023-03-18T23:45:12;101732.00;;;8.16;35.65
53659;BME280;41524;35.624;139.698;2023-03-18T23:50:16;101733.00;;;7.75;35.69
53659;BME280;41524;35.624;139.698;2023-03-18T23:55:17;101741.00;;;7.96;35.91
